createdAt,value
2017-01-18T00:00:15.444Z,0
2017-01-18T00:01:15.379Z,0
2017-01-18T00:02:15.312Z,0
2017-01-18T00:03:15.244Z,0
2017-01-18T00:04:15.193Z,0
2017-01-18T00:05:15.131Z,0
2017-01-18T00:06:15.059Z,0
2017-01-18T00:07:14.997Z,0
2017-01-18T00:08:14.943Z,0
2017-01-18T00:09:14.879Z,0
2017-01-18T00:10:14.810Z,0
2017-01-18T00:11:14.752Z,0
2017-01-18T00:12:14.688Z,0
2017-01-18T00:13:14.623Z,0
2017-01-18T00:14:14.562Z,0
2017-01-18T00:15:14.907Z,0
2017-01-18T00:16:14.441Z,0
2017-01-18T00:17:14.375Z,0
2017-01-18T00:18:14.313Z,0
2017-01-18T00:19:14.252Z,0
2017-01-18T00:20:14.597Z,0
2017-01-18T00:21:14.126Z,0
2017-01-18T00:22:14.093Z,0
2017-01-18T00:23:14.004Z,0
2017-01-18T00:24:13.939Z,0
2017-01-18T00:25:13.877Z,0
2017-01-18T00:26:13.818Z,0
2017-01-18T00:27:13.757Z,0
2017-01-18T00:28:13.690Z,0
2017-01-18T00:29:13.627Z,0
2017-01-18T00:30:13.568Z,0
2017-01-18T00:31:13.504Z,0
2017-01-18T00:32:13.832Z,0
2017-01-18T00:33:13.377Z,0
2017-01-18T00:34:13.716Z,0
2017-01-18T00:35:13.255Z,0
2017-01-18T00:36:13.191Z,0
2017-01-18T00:37:13.132Z,0
2017-01-18T00:38:13.068Z,0
2017-01-18T00:39:13.007Z,0
2017-01-18T00:40:12.942Z,0
2017-01-18T00:41:12.883Z,0
2017-01-18T00:42:12.822Z,0
2017-01-18T00:43:12.754Z,0
2017-01-18T00:44:12.704Z,0
2017-01-18T00:45:12.634Z,0
2017-01-18T00:46:12.571Z,0
2017-01-18T00:47:12.514Z,0
2017-01-18T00:48:12.450Z,0
2017-01-18T00:49:12.386Z,0
2017-01-18T00:50:12.320Z,0
2017-01-18T00:51:12.259Z,0
2017-01-18T00:52:12.195Z,0
2017-01-18T00:53:12.133Z,0
2017-01-18T00:54:12.095Z,0
2017-01-18T00:55:12.034Z,0
2017-01-18T00:56:11.956Z,0
2017-01-18T00:57:12.283Z,0
2017-01-18T00:58:11.822Z,0
2017-01-18T00:59:11.760Z,0
2017-01-18T01:01:16.849Z,0
2017-01-18T01:02:16.767Z,0
2017-01-18T01:03:16.696Z,0
2017-01-18T01:04:16.665Z,0
2017-01-18T01:05:16.573Z,0
2017-01-18T01:06:16.510Z,0
2017-01-18T01:07:16.452Z,0
2017-01-18T01:08:16.385Z,0
2017-01-18T01:09:16.329Z,0
2017-01-18T01:10:16.276Z,0
2017-01-18T01:11:16.211Z,0
2017-01-18T01:12:16.138Z,0
2017-01-18T01:13:16.075Z,0
2017-01-18T01:14:16.013Z,0
2017-01-18T01:15:15.952Z,0
2017-01-18T01:16:15.886Z,0
2017-01-18T01:17:15.827Z,0
2017-01-18T01:18:15.767Z,0
2017-01-18T01:19:15.700Z,0
2017-01-18T01:20:15.640Z,0
2017-01-18T01:21:15.581Z,0
2017-01-18T01:22:15.517Z,0
2017-01-18T01:23:15.452Z,0
2017-01-18T01:24:15.391Z,0
2017-01-18T01:25:15.331Z,0
2017-01-18T01:26:15.264Z,0
2017-01-18T01:27:15.204Z,0
2017-01-18T01:28:15.147Z,0
2017-01-18T01:29:15.078Z,0
2017-01-18T01:30:15.019Z,0
2017-01-18T01:31:14.955Z,0
2017-01-18T01:32:14.893Z,0
2017-01-18T01:33:14.828Z,0
2017-01-18T01:34:14.766Z,0
2017-01-18T01:35:14.712Z,0
2017-01-18T01:36:14.646Z,0
2017-01-18T01:37:14.580Z,0
2017-01-18T01:38:14.912Z,0
2017-01-18T01:39:14.483Z,0
2017-01-18T01:40:14.394Z,0
2017-01-18T01:41:14.332Z,0
2017-01-18T01:42:14.270Z,0
2017-01-18T01:43:14.207Z,0
2017-01-18T01:44:14.146Z,0
2017-01-18T01:45:14.080Z,0
2017-01-18T01:46:14.026Z,0
2017-01-18T01:47:13.957Z,0
2017-01-18T01:48:13.894Z,0
2017-01-18T01:49:13.833Z,0
2017-01-18T01:50:13.777Z,0
2017-01-18T01:51:14.102Z,0
2017-01-18T01:52:13.648Z,0
2017-01-18T01:53:13.592Z,0
2017-01-18T01:54:13.918Z,0
2017-01-18T01:55:13.457Z,0
2017-01-18T01:56:13.398Z,0
2017-01-18T01:57:13.339Z,0
2017-01-18T01:58:13.272Z,0
2017-01-18T01:59:13.213Z,0
2017-01-18T02:00:13.149Z,0
2017-01-18T02:01:13.085Z,0
2017-01-18T02:02:13.038Z,0
2017-01-18T02:03:12.965Z,0
2017-01-18T02:04:12.901Z,0
2017-01-18T02:05:12.863Z,0
2017-01-18T02:06:12.777Z,0
2017-01-18T02:07:12.712Z,0
2017-01-18T02:08:12.650Z,0
2017-01-18T02:09:12.589Z,0
2017-01-18T02:10:12.523Z,0
2017-01-18T02:11:12.464Z,0
2017-01-18T02:12:12.403Z,0
2017-01-18T02:13:12.346Z,0
2017-01-18T02:14:12.280Z,0
2017-01-18T02:15:12.215Z,0
2017-01-18T02:16:12.154Z,0
2017-01-18T02:17:12.096Z,0
2017-01-18T02:18:12.415Z,0
2017-01-18T02:19:11.969Z,0
2017-01-18T02:20:11.907Z,0
2017-01-18T02:21:11.843Z,0
2017-01-18T02:22:11.783Z,0
2017-01-18T02:23:11.723Z,0
2017-01-18T02:24:11.653Z,0
2017-01-18T02:25:11.593Z,0
2017-01-18T02:26:11.563Z,0
2017-01-18T02:27:11.470Z,0
2017-01-18T02:28:11.407Z,0
2017-01-18T02:29:11.341Z,0
2017-01-18T02:30:11.285Z,0
2017-01-18T02:31:11.223Z,0
2017-01-18T02:32:11.158Z,0
2017-01-18T02:33:11.093Z,0
2017-01-18T02:34:11.036Z,0
2017-01-18T02:35:10.984Z,0
2017-01-18T02:36:11.310Z,0
2017-01-18T02:37:10.861Z,0
2017-01-18T02:38:10.788Z,0
2017-01-18T02:39:10.737Z,0
2017-01-18T02:40:10.659Z,0
2017-01-18T02:41:10.609Z,0
2017-01-18T02:42:10.537Z,0
2017-01-18T02:43:10.499Z,0
2017-01-18T02:44:10.409Z,0
2017-01-18T02:45:10.351Z,0
2017-01-18T02:46:10.312Z,0
2017-01-18T02:47:10.223Z,0
2017-01-18T02:48:10.161Z,0
2017-01-18T02:49:10.100Z,0
2017-01-18T02:50:10.039Z,0
2017-01-18T02:51:09.975Z,0
2017-01-18T02:52:09.914Z,0
2017-01-18T02:53:09.851Z,0
2017-01-18T02:54:09.789Z,0
2017-01-18T02:55:09.725Z,0
2017-01-18T02:56:09.674Z,0
2017-01-18T02:57:09.600Z,0
2017-01-18T02:58:09.541Z,0
2017-01-18T02:59:09.481Z,0
2017-01-18T03:00:09.417Z,0
2017-01-18T03:01:09.353Z,0
2017-01-18T03:02:09.296Z,0
2017-01-18T03:03:09.231Z,0
2017-01-18T03:04:09.169Z,0
2017-01-18T03:05:09.111Z,0
2017-01-18T03:06:09.045Z,0
2017-01-18T03:07:08.984Z,0
2017-01-18T03:08:08.918Z,0
2017-01-18T03:09:08.853Z,0
2017-01-18T03:10:08.795Z,0
2017-01-18T03:11:08.730Z,0
2017-01-18T03:12:08.665Z,0
2017-01-18T03:13:08.606Z,0
2017-01-18T03:14:08.544Z,0
2017-01-18T03:15:08.482Z,0
2017-01-18T03:16:08.423Z,0
2017-01-18T03:17:08.358Z,0
2017-01-18T03:18:08.295Z,0
2017-01-18T03:19:08.237Z,0
2017-01-18T03:20:08.171Z,0
2017-01-18T03:21:08.111Z,0
2017-01-18T03:22:08.044Z,0
2017-01-18T03:23:07.983Z,0
2017-01-18T03:24:07.921Z,0
2017-01-18T03:25:07.859Z,0
2017-01-18T03:26:07.799Z,0
2017-01-18T03:27:07.735Z,0
2017-01-18T03:28:07.682Z,0
2017-01-18T03:29:07.635Z,0
2017-01-18T03:30:07.558Z,0
2017-01-18T03:31:07.507Z,0
2017-01-18T03:32:07.424Z,0
2017-01-18T03:33:07.382Z,0
2017-01-18T03:34:07.331Z,0
2017-01-18T03:35:07.251Z,0
2017-01-18T03:36:07.187Z,0
2017-01-18T03:37:07.132Z,0
2017-01-18T03:38:07.061Z,0
2017-01-18T03:39:07.011Z,0
2017-01-18T03:40:06.947Z,0
2017-01-18T03:41:06.881Z,0
2017-01-18T03:42:06.811Z,0
2017-01-18T03:43:06.756Z,0
2017-01-18T03:44:07.086Z,0
2017-01-18T03:45:06.633Z,0
2017-01-18T03:46:06.586Z,0
2017-01-18T03:47:06.525Z,0
2017-01-18T03:48:06.439Z,0
2017-01-18T03:49:06.362Z,0
2017-01-18T03:50:06.308Z,0
2017-01-18T03:51:06.239Z,0
2017-01-18T03:52:06.178Z,0
2017-01-18T03:53:06.120Z,0
2017-01-18T03:54:06.055Z,0
2017-01-18T03:55:05.991Z,0
2017-01-18T03:56:05.927Z,0
2017-01-18T03:57:05.865Z,0
2017-01-18T03:58:05.805Z,0
2017-01-18T03:59:05.742Z,0
2017-01-18T04:00:05.677Z,0
2017-01-18T04:01:05.616Z,0
2017-01-18T04:02:05.557Z,0
2017-01-18T04:03:05.497Z,0
2017-01-18T04:04:05.430Z,0
2017-01-18T04:05:05.371Z,0
2017-01-18T04:06:06.720Z,0
2017-01-18T04:07:05.636Z,0
2017-01-18T04:08:05.207Z,0
2017-01-18T04:09:05.114Z,0
2017-01-18T04:10:05.055Z,0
2017-01-18T04:11:04.994Z,0
2017-01-18T04:12:04.930Z,0
2017-01-18T04:13:04.871Z,0
2017-01-18T04:14:04.809Z,0
2017-01-18T04:15:04.746Z,0
2017-01-18T04:16:04.682Z,0
2017-01-18T04:17:04.621Z,0
2017-01-18T04:18:04.559Z,0
2017-01-18T04:19:04.495Z,0
2017-01-18T04:20:04.437Z,0
2017-01-18T04:21:04.372Z,0
2017-01-18T04:22:04.311Z,0
2017-01-18T04:23:04.250Z,0
2017-01-18T04:24:04.183Z,0
2017-01-18T04:25:04.122Z,0
2017-01-18T04:26:04.060Z,0
2017-01-18T04:27:04.000Z,0
2017-01-18T04:28:03.935Z,0
2017-01-18T04:29:03.879Z,0
2017-01-18T04:30:03.826Z,0
2017-01-18T04:31:03.754Z,0
2017-01-18T04:32:03.684Z,0
2017-01-18T04:33:03.625Z,0
2017-01-18T04:34:03.567Z,0
2017-01-18T04:35:03.891Z,0
2017-01-18T04:36:04.642Z,0
2017-01-18T04:37:03.374Z,0
2017-01-18T04:38:03.322Z,0
2017-01-18T04:39:03.253Z,0
2017-01-18T04:40:03.189Z,0
2017-01-18T04:41:03.129Z,0
2017-01-18T04:42:03.077Z,0
2017-01-18T04:43:03.001Z,0
2017-01-18T04:44:02.943Z,0
2017-01-18T04:45:03.268Z,0
2017-01-18T04:46:02.839Z,0
2017-01-18T04:47:02.754Z,0
2017-01-18T04:48:02.690Z,0
2017-01-18T04:49:02.630Z,0
2017-01-18T04:50:02.570Z,0
2017-01-18T04:51:02.509Z,0
2017-01-18T04:52:02.838Z,0
2017-01-18T04:53:02.382Z,0
2017-01-18T04:54:02.320Z,0
2017-01-18T04:55:02.273Z,0
2017-01-18T04:56:02.197Z,0
2017-01-18T04:57:02.139Z,0
2017-01-18T04:58:02.073Z,0
2017-01-18T04:59:02.011Z,0
2017-01-18T05:00:01.950Z,0
2017-01-18T05:01:01.888Z,0
2017-01-18T05:02:01.827Z,0
2017-01-18T05:03:01.766Z,0
2017-01-18T05:04:01.706Z,0
2017-01-18T05:05:01.636Z,0
2017-01-18T05:06:01.578Z,0
2017-01-18T05:07:01.516Z,0
2017-01-18T05:08:01.458Z,0
2017-01-18T05:09:01.391Z,0
2017-01-18T05:10:01.328Z,0
2017-01-18T05:11:01.266Z,0
2017-01-18T05:12:01.202Z,0
2017-01-18T05:13:01.143Z,0
2017-01-18T05:14:01.081Z,0
2017-01-18T05:15:01.018Z,0
2017-01-18T05:16:00.953Z,0
2017-01-18T05:17:00.897Z,0
2017-01-18T05:18:00.830Z,0
2017-01-18T05:19:00.769Z,0
2017-01-18T05:20:00.714Z,0
2017-01-18T05:21:00.675Z,0
2017-01-18T05:22:00.589Z,0
2017-01-18T05:23:00.520Z,0
2017-01-18T05:24:00.478Z,0
2017-01-18T05:25:00.398Z,0
2017-01-18T05:26:00.339Z,0
2017-01-18T05:27:00.301Z,0
2017-01-18T05:28:00.210Z,0
2017-01-18T05:29:00.149Z,0
2017-01-18T05:30:00.084Z,0
2017-01-18T05:31:00.021Z,0
2017-01-18T05:31:59.963Z,0
2017-01-18T05:32:59.898Z,0
2017-01-18T05:34:00.231Z,0
2017-01-18T05:34:59.800Z,0
2017-01-18T05:35:59.717Z,0
2017-01-18T05:36:59.652Z,0
2017-01-18T05:37:59.585Z,0
2017-01-18T05:38:59.525Z,0
2017-01-18T05:39:59.465Z,0
2017-01-18T05:40:59.408Z,0
2017-01-18T05:41:59.351Z,0
2017-01-18T05:42:59.281Z,0
2017-01-18T05:43:59.214Z,0
2017-01-18T05:44:59.157Z,0
2017-01-18T05:45:59.092Z,0
2017-01-18T05:46:59.038Z,0
2017-01-18T05:47:58.967Z,0
2017-01-18T05:48:58.920Z,0
2017-01-18T05:49:58.844Z,0
2017-01-18T05:50:58.783Z,0
2017-01-18T05:51:58.719Z,0
2017-01-18T05:52:58.941Z,0
2017-01-18T05:53:58.598Z,0
2017-01-18T05:54:58.534Z,0
2017-01-18T05:55:58.469Z,0
2017-01-18T05:56:58.407Z,0
2017-01-18T05:57:58.353Z,0
2017-01-18T05:58:58.285Z,0
2017-01-18T05:59:58.219Z,0
2017-01-18T06:00:58.161Z,0
2017-01-18T06:01:58.098Z,0
2017-01-18T06:02:58.034Z,0
2017-01-18T06:03:57.975Z,0
2017-01-18T06:04:57.909Z,0
2017-01-18T06:05:57.845Z,0
2017-01-18T06:06:57.782Z,0
2017-01-18T06:07:57.721Z,0
2017-01-18T06:08:57.661Z,0
2017-01-18T06:09:57.600Z,0
2017-01-18T06:10:57.536Z,0
2017-01-18T06:11:57.473Z,0
2017-01-18T06:12:57.411Z,0
2017-01-18T06:13:57.357Z,0
2017-01-18T06:14:57.285Z,0
2017-01-18T06:15:57.226Z,0
2017-01-18T06:16:57.160Z,0
2017-01-18T06:17:57.098Z,0
2017-01-18T06:18:57.038Z,0
2017-01-18T06:19:56.980Z,0
2017-01-18T06:20:56.915Z,0
2017-01-18T06:21:56.851Z,0
2017-01-18T06:22:56.792Z,0
2017-01-18T06:23:56.730Z,0
2017-01-18T06:24:56.665Z,0
2017-01-18T06:25:56.601Z,0
2017-01-18T06:26:56.537Z,0
2017-01-18T06:27:56.474Z,0
2017-01-18T06:28:56.413Z,0
2017-01-18T06:29:56.378Z,0
2017-01-18T06:30:56.392Z,0
2017-01-18T06:31:56.227Z,0
2017-01-18T06:32:56.167Z,0
2017-01-18T06:33:56.105Z,0
2017-01-18T06:34:56.041Z,0
2017-01-18T06:35:56.135Z,0
2017-01-18T06:36:55.914Z,0
2017-01-18T06:37:55.857Z,0
2017-01-18T06:38:55.794Z,0
2017-01-18T06:39:55.727Z,0
2017-01-18T06:40:55.665Z,0
2017-01-18T06:41:55.608Z,0
2017-01-18T06:42:55.543Z,0
2017-01-18T06:43:55.480Z,0
2017-01-18T06:44:55.440Z,0
2017-01-18T06:45:55.360Z,0
2017-01-18T06:46:55.293Z,0
2017-01-18T06:47:55.228Z,0
2017-01-18T06:48:55.165Z,0
2017-01-18T06:49:55.109Z,0
2017-01-18T06:50:55.043Z,0
2017-01-18T06:51:54.981Z,0
2017-01-18T06:52:54.922Z,0
2017-01-18T06:53:54.858Z,4
2017-01-18T06:54:54.796Z,4
2017-01-18T06:55:54.737Z,4
2017-01-18T06:56:54.672Z,4
2017-01-18T06:57:55.003Z,4
2017-01-18T06:58:54.547Z,4
2017-01-18T06:59:54.484Z,4
2017-01-18T07:00:54.427Z,4
2017-01-18T07:01:54.752Z,4
2017-01-18T07:02:54.298Z,4
2017-01-18T07:03:54.240Z,4
2017-01-18T07:04:54.175Z,4
2017-01-18T07:05:54.113Z,4
2017-01-18T07:06:54.056Z,4
2017-01-18T07:07:53.987Z,4
2017-01-18T07:08:53.932Z,4
2017-01-18T07:09:54.251Z,4
2017-01-18T07:10:53.801Z,4
2017-01-18T07:11:53.745Z,4
2017-01-18T07:12:53.679Z,4
2017-01-18T07:13:53.616Z,4
2017-01-18T07:14:53.563Z,4
2017-01-18T07:15:53.497Z,4
2017-01-18T07:16:53.431Z,4
2017-01-18T07:17:53.759Z,4
2017-01-18T07:18:53.696Z,8
2017-01-18T07:19:53.645Z,8
2017-01-18T07:20:53.185Z,8
2017-01-18T07:21:53.121Z,8
2017-01-18T07:22:53.061Z,8
2017-01-18T07:23:52.998Z,8
2017-01-18T07:24:52.936Z,4
2017-01-18T07:25:52.874Z,4
2017-01-18T07:26:52.813Z,4
2017-01-18T07:27:52.753Z,4
2017-01-18T07:28:52.689Z,4
2017-01-18T07:29:52.624Z,4
2017-01-18T07:30:52.562Z,4
2017-01-18T07:31:52.503Z,4
2017-01-18T07:32:52.442Z,4
2017-01-18T07:33:52.376Z,4
2017-01-18T07:34:52.708Z,4
2017-01-18T07:35:52.257Z,4
2017-01-18T07:36:52.195Z,4
2017-01-18T07:37:52.132Z,4
2017-01-18T07:38:52.074Z,4
2017-01-18T07:39:52.008Z,4
2017-01-18T07:40:51.941Z,4
2017-01-18T07:41:51.880Z,4
2017-01-18T07:42:51.818Z,4
2017-01-18T07:43:51.757Z,4
2017-01-18T07:44:51.692Z,4
2017-01-18T07:45:51.633Z,4
2017-01-18T07:46:51.571Z,4
2017-01-18T07:47:51.508Z,4
2017-01-18T07:48:51.451Z,8
2017-01-18T07:49:51.383Z,8
2017-01-18T07:50:51.710Z,8
2017-01-18T07:51:51.257Z,8
2017-01-18T07:52:51.200Z,8
2017-01-18T07:53:51.139Z,8
2017-01-18T07:54:51.464Z,8
2017-01-18T07:55:51.015Z,8
2017-01-18T07:56:50.948Z,8
2017-01-18T07:57:50.888Z,8
2017-01-18T07:58:50.823Z,8
2017-01-18T07:59:50.763Z,8
2017-01-18T08:00:50.701Z,8
2017-01-18T08:01:50.644Z,8
2017-01-18T08:02:50.577Z,8
2017-01-18T08:03:50.903Z,8
2017-01-18T08:04:50.449Z,8
2017-01-18T08:05:50.391Z,8
2017-01-18T08:06:50.326Z,8
2017-01-18T08:07:50.264Z,8
2017-01-18T08:08:50.240Z,8
2017-01-18T08:09:50.138Z,8
2017-01-18T08:10:50.080Z,4
2017-01-18T08:11:50.013Z,4
2017-01-18T08:12:50.155Z,8
2017-01-18T08:13:49.890Z,8
2017-01-18T08:14:49.826Z,8
2017-01-18T08:15:50.415Z,8
2017-01-18T08:16:49.700Z,8
2017-01-18T08:17:49.902Z,8
2017-01-18T08:18:49.585Z,8
2017-01-18T08:19:49.522Z,8
2017-01-18T08:20:49.455Z,8
2017-01-18T08:21:49.396Z,4
2017-01-18T08:22:49.719Z,4
2017-01-18T08:23:49.271Z,8
2017-01-18T08:24:49.207Z,4
2017-01-18T08:25:49.142Z,4
2017-01-18T08:26:49.078Z,4
2017-01-18T08:27:49.019Z,8
2017-01-18T08:28:48.955Z,8
2017-01-18T08:29:48.896Z,4
2017-01-18T08:30:48.834Z,4
2017-01-18T08:31:48.779Z,8
2017-01-18T08:32:48.709Z,8
2017-01-18T08:33:49.033Z,8
2017-01-18T08:34:48.582Z,4
2017-01-18T08:35:48.671Z,8
2017-01-18T08:36:48.458Z,8
2017-01-18T08:37:48.396Z,8
2017-01-18T08:38:48.333Z,8
2017-01-18T08:39:48.272Z,8
2017-01-18T08:40:48.314Z,8
2017-01-18T08:41:48.144Z,8
2017-01-18T08:42:48.087Z,8
2017-01-18T08:43:48.024Z,8
2017-01-18T08:44:47.959Z,8
2017-01-18T08:45:48.296Z,8
2017-01-18T08:46:48.239Z,8
2017-01-18T08:47:47.769Z,8
2017-01-18T08:48:47.710Z,8
2017-01-18T08:49:47.646Z,8
2017-01-18T08:50:47.589Z,8
2017-01-18T08:51:47.533Z,8
2017-01-18T08:52:47.462Z,8
2017-01-18T08:53:47.396Z,8
2017-01-18T08:54:47.345Z,8
2017-01-18T08:55:47.381Z,8
2017-01-18T08:56:47.209Z,8
2017-01-18T08:57:47.155Z,8
2017-01-18T08:58:47.089Z,8
2017-01-18T08:59:47.020Z,8
2017-01-18T09:00:46.968Z,12
2017-01-18T09:01:46.918Z,12
2017-01-18T09:02:47.226Z,12
2017-01-18T09:03:46.776Z,8
2017-01-18T09:04:46.715Z,8
2017-01-18T09:05:46.683Z,8
2017-01-18T09:06:46.587Z,8
2017-01-18T09:07:46.525Z,8
2017-01-18T09:08:46.461Z,12
2017-01-18T09:09:46.400Z,12
2017-01-18T09:10:46.736Z,12
2017-01-18T09:11:46.275Z,12
2017-01-18T09:12:46.217Z,12
2017-01-18T09:13:46.154Z,12
2017-01-18T09:14:46.094Z,12
2017-01-18T09:15:46.261Z,8
2017-01-18T09:16:45.961Z,8
2017-01-18T09:17:45.904Z,8
2017-01-18T09:18:45.840Z,8
2017-01-18T09:19:45.777Z,12
2017-01-18T09:20:45.711Z,12
2017-01-18T09:21:45.653Z,12
2017-01-18T09:22:45.589Z,12
2017-01-18T09:23:45.528Z,12
2017-01-18T09:24:45.465Z,12
2017-01-18T09:25:45.805Z,12
2017-01-18T09:26:45.349Z,12
2017-01-18T09:27:45.276Z,12
2017-01-18T09:28:45.219Z,12
2017-01-18T09:29:45.150Z,12
2017-01-18T09:30:45.537Z,16
2017-01-18T09:31:45.027Z,16
2017-01-18T09:32:44.977Z,16
2017-01-18T09:33:44.904Z,16
2017-01-18T09:34:44.842Z,12
2017-01-18T09:35:45.322Z,12
2017-01-18T09:36:44.723Z,12
2017-01-18T09:37:44.654Z,16
2017-01-18T09:38:44.593Z,16
2017-01-18T09:39:44.538Z,12
2017-01-18T09:40:44.475Z,12
2017-01-18T09:41:44.410Z,12
2017-01-18T09:42:44.351Z,12
2017-01-18T09:43:44.277Z,12
2017-01-18T09:44:44.215Z,12
2017-01-18T09:45:44.163Z,12
2017-01-18T09:46:44.092Z,12
2017-01-18T09:47:44.025Z,12
2017-01-18T09:48:43.967Z,12
2017-01-18T09:49:43.903Z,12
2017-01-18T09:50:44.229Z,12
2017-01-18T09:51:43.779Z,12
2017-01-18T09:52:44.110Z,12
2017-01-18T09:53:43.681Z,12
2017-01-18T09:54:43.592Z,12
2017-01-18T09:55:43.828Z,12
2017-01-18T09:56:43.466Z,12
2017-01-18T09:57:43.402Z,12
2017-01-18T09:58:43.344Z,12
2017-01-18T09:59:43.283Z,8
2017-01-18T10:00:43.223Z,8
2017-01-18T10:01:43.156Z,8
2017-01-18T10:02:43.105Z,8
2017-01-18T10:03:43.038Z,8
2017-01-18T10:04:42.993Z,12
2017-01-18T10:05:43.011Z,12
2017-01-18T10:06:42.876Z,12
2017-01-18T10:07:42.781Z,12
2017-01-18T10:08:42.721Z,12
2017-01-18T10:09:42.657Z,12
2017-01-18T10:10:42.600Z,12
2017-01-18T10:11:42.532Z,8
2017-01-18T10:12:42.476Z,12
2017-01-18T10:13:42.417Z,12
2017-01-18T10:14:42.348Z,12
2017-01-18T10:15:42.295Z,12
2017-01-18T10:16:42.222Z,12
2017-01-18T10:17:42.554Z,12
2017-01-18T10:18:42.102Z,12
2017-01-18T10:19:42.065Z,12
2017-01-18T10:20:42.397Z,12
2017-01-18T10:21:41.910Z,12
2017-01-18T10:22:42.459Z,12
2017-01-18T10:23:41.789Z,12
2017-01-18T10:24:41.731Z,12
2017-01-18T10:25:56.565Z,8
2017-01-18T10:26:41.993Z,8
2017-01-18T10:27:41.619Z,8
2017-01-18T10:28:42.709Z,8
2017-01-18T10:29:41.443Z,8
2017-01-18T10:30:41.379Z,8
2017-01-18T10:31:41.702Z,12
2017-01-18T10:32:41.227Z,12
2017-01-18T10:33:41.394Z,8
2017-01-18T10:34:41.107Z,8
2017-01-18T10:35:41.046Z,12
2017-01-18T10:36:41.383Z,12
2017-01-18T10:37:40.932Z,12
2017-01-18T10:38:40.871Z,12
2017-01-18T10:39:41.193Z,12
2017-01-18T10:40:40.760Z,12
2017-01-18T10:41:41.089Z,52
2017-01-18T10:42:40.652Z,64
2017-01-18T10:43:40.551Z,68
2017-01-18T10:44:40.487Z,68
2017-01-18T10:45:40.428Z,68
2017-01-18T10:46:40.877Z,68
2017-01-18T10:47:40.323Z,68
2017-01-18T10:48:40.250Z,68
2017-01-18T10:49:40.432Z,68
2017-01-18T10:50:40.165Z,64
2017-01-18T10:51:40.351Z,64
2017-01-18T10:52:39.989Z,64
2017-01-18T10:53:39.927Z,64
2017-01-18T10:54:39.863Z,64
2017-01-18T10:55:39.798Z,64
2017-01-18T10:56:39.734Z,68
2017-01-18T10:57:40.069Z,68
2017-01-18T10:58:39.616Z,68
2017-01-18T10:59:39.549Z,68
2017-01-18T11:00:39.491Z,68
2017-01-18T11:01:39.429Z,64
2017-01-18T11:02:39.366Z,68
2017-01-18T11:03:39.303Z,64
2017-01-18T11:04:39.243Z,64
2017-01-18T11:05:39.182Z,68
2017-01-18T11:06:39.140Z,68
2017-01-18T11:07:39.444Z,64
2017-01-18T11:08:38.993Z,64
2017-01-18T11:09:38.931Z,64
2017-01-18T11:10:39.267Z,64
2017-01-18T11:11:38.811Z,64
2017-01-18T11:12:38.744Z,64
2017-01-18T11:13:38.681Z,64
2017-01-18T11:14:38.621Z,64
2017-01-18T11:15:38.557Z,64
2017-01-18T11:16:38.499Z,64
2017-01-18T11:17:38.435Z,68
2017-01-18T11:18:38.375Z,64
2017-01-18T11:19:38.311Z,64
2017-01-18T11:20:38.253Z,64
2017-01-18T11:21:38.185Z,64
2017-01-18T11:22:38.127Z,64
2017-01-18T11:23:38.071Z,64
2017-01-18T11:24:37.996Z,64
2017-01-18T11:25:38.348Z,64
2017-01-18T11:26:37.902Z,64
2017-01-18T11:27:37.815Z,64
2017-01-18T11:28:37.752Z,64
2017-01-18T11:29:37.690Z,64
2017-01-18T11:30:37.627Z,64
2017-01-18T11:31:37.596Z,64
2017-01-18T11:32:37.538Z,64
2017-01-18T11:33:37.459Z,60
2017-01-18T11:34:37.407Z,64
2017-01-18T11:35:37.323Z,64
2017-01-18T11:36:37.258Z,64
2017-01-18T11:37:37.193Z,64
2017-01-18T11:38:37.139Z,64
2017-01-18T11:39:37.070Z,64
2017-01-18T11:40:37.011Z,64
2017-01-18T11:41:37.015Z,64
2017-01-18T11:42:36.885Z,64
2017-01-18T11:43:36.824Z,64
2017-01-18T11:44:36.764Z,64
2017-01-18T11:45:36.698Z,64
2017-01-18T11:46:36.635Z,64
2017-01-18T11:47:36.580Z,64
2017-01-18T11:48:36.516Z,60
2017-01-18T11:49:36.453Z,60
2017-01-18T11:50:36.389Z,64
2017-01-18T11:51:36.329Z,64
2017-01-18T11:52:37.128Z,64
2017-01-18T11:53:36.327Z,64
2017-01-18T11:54:36.140Z,64
2017-01-18T11:55:36.117Z,64
2017-01-18T11:56:36.238Z,64
2017-01-18T11:57:35.959Z,64
2017-01-18T11:58:35.988Z,64
2017-01-18T11:59:35.896Z,64
2017-01-18T12:00:35.774Z,64
2017-01-18T12:01:35.733Z,64
2017-01-18T12:02:35.776Z,64
2017-01-18T12:03:35.670Z,64
2017-01-18T12:04:35.558Z,64
2017-01-18T12:05:35.651Z,64
2017-01-18T12:06:35.489Z,64
2017-01-18T12:07:35.344Z,64
2017-01-18T12:08:35.283Z,64
2017-01-18T12:09:35.218Z,64
2017-01-18T12:10:35.159Z,12
2017-01-18T12:11:35.167Z,12
2017-01-18T12:12:35.044Z,12
2017-01-18T12:13:34.971Z,12
2017-01-18T12:14:34.905Z,12
2017-01-18T12:15:34.851Z,12
2017-01-18T12:16:34.790Z,12
2017-01-18T12:17:34.730Z,12
2017-01-18T12:18:34.662Z,12
2017-01-18T12:19:34.606Z,12
2017-01-18T12:20:34.540Z,8
2017-01-18T12:21:34.482Z,8
2017-01-18T12:22:34.435Z,12
2017-01-18T12:23:34.355Z,12
2017-01-18T12:24:34.714Z,12
2017-01-18T12:25:34.496Z,12
2017-01-18T12:26:34.282Z,8
2017-01-18T12:27:34.188Z,8
2017-01-18T12:28:34.078Z,8
2017-01-18T12:29:34.007Z,8
2017-01-18T12:30:33.951Z,12
2017-01-18T12:31:33.953Z,12
2017-01-18T12:32:33.846Z,12
2017-01-18T12:33:34.159Z,12
2017-01-18T12:34:33.674Z,12
2017-01-18T12:35:33.618Z,8
2017-01-18T12:36:34.030Z,8
2017-01-18T12:37:33.880Z,12
2017-01-18T12:38:33.460Z,12
2017-01-18T12:39:33.367Z,12
2017-01-18T12:40:33.300Z,12
2017-01-18T12:41:33.238Z,12
2017-01-18T12:42:33.176Z,12
2017-01-18T12:43:33.115Z,12
2017-01-18T12:44:33.061Z,12
2017-01-18T12:45:32.996Z,12
2017-01-18T12:46:32.934Z,12
2017-01-18T12:47:33.263Z,12
2017-01-18T12:48:32.820Z,8
2017-01-18T12:49:32.740Z,8
2017-01-18T12:50:32.681Z,12
2017-01-18T12:51:32.624Z,12
2017-01-18T12:52:32.557Z,12
2017-01-18T12:53:32.495Z,12
2017-01-18T12:54:32.433Z,12
2017-01-18T12:55:32.790Z,8
2017-01-18T12:56:32.319Z,12
2017-01-18T12:57:32.247Z,8
2017-01-18T12:58:32.191Z,12
2017-01-18T12:59:32.131Z,12
2017-01-18T13:00:32.475Z,12
2017-01-18T13:01:32.002Z,8
2017-01-18T13:02:31.943Z,8
2017-01-18T13:03:31.876Z,12
2017-01-18T13:04:31.821Z,12
2017-01-18T13:05:31.753Z,12
2017-01-18T13:06:31.689Z,12
2017-01-18T13:07:31.625Z,12
2017-01-18T13:08:31.571Z,12
2017-01-18T13:09:31.501Z,8
2017-01-18T13:10:31.442Z,8
2017-01-18T13:11:31.386Z,8
2017-01-18T13:12:31.317Z,8
2017-01-18T13:13:31.254Z,8
2017-01-18T13:14:31.195Z,8
2017-01-18T13:15:31.132Z,8
2017-01-18T13:16:31.077Z,8
2017-01-18T13:17:31.010Z,8
2017-01-18T13:18:30.952Z,8
2017-01-18T13:19:30.884Z,8
2017-01-18T13:20:30.818Z,8
2017-01-18T13:21:30.756Z,8
2017-01-18T13:22:30.699Z,8
2017-01-18T13:23:30.635Z,8
2017-01-18T13:24:30.962Z,8
2017-01-18T13:25:30.511Z,8
2017-01-18T13:26:30.839Z,8
2017-01-18T13:27:30.390Z,8
2017-01-18T13:28:30.324Z,8
2017-01-18T13:29:30.651Z,4
2017-01-18T13:30:30.199Z,8
2017-01-18T13:31:30.165Z,8
2017-01-18T13:32:30.075Z,8
2017-01-18T13:33:30.011Z,8
2017-01-18T13:34:29.949Z,8
2017-01-18T13:35:29.888Z,8
2017-01-18T13:36:29.832Z,8
2017-01-18T13:37:30.155Z,8
2017-01-18T13:38:29.701Z,8
2017-01-18T13:39:29.638Z,8
2017-01-18T13:40:29.596Z,8
2017-01-18T13:41:29.519Z,4
2017-01-18T13:42:29.455Z,8
2017-01-18T13:43:29.393Z,12
2017-01-18T13:44:29.330Z,12
2017-01-18T13:45:29.267Z,12
2017-01-18T13:46:29.206Z,12
2017-01-18T13:47:29.143Z,12
2017-01-18T13:48:29.112Z,12
2017-01-18T13:49:29.023Z,12
2017-01-18T13:50:28.963Z,12
2017-01-18T13:51:28.895Z,12
2017-01-18T13:52:28.834Z,12
2017-01-18T13:53:28.783Z,12
2017-01-18T13:54:28.714Z,12
2017-01-18T13:55:28.654Z,12
2017-01-18T13:56:28.608Z,12
2017-01-18T13:57:28.525Z,12
2017-01-18T13:58:28.465Z,12
2017-01-18T13:59:28.400Z,12
2017-01-18T14:00:28.438Z,12
2017-01-18T14:01:28.278Z,132
2017-01-18T14:02:28.212Z,56
2017-01-18T14:03:28.153Z,60
2017-01-18T14:04:28.088Z,60
2017-01-18T14:05:28.044Z,60
2017-01-18T14:06:27.965Z,60
2017-01-18T14:07:27.932Z,60
2017-01-18T14:08:27.908Z,60
2017-01-18T14:09:27.993Z,64
2017-01-18T14:10:27.713Z,64
2017-01-18T14:11:27.669Z,64
2017-01-18T14:12:27.591Z,64
2017-01-18T14:13:27.529Z,64
2017-01-18T14:14:27.495Z,72
2017-01-18T14:15:27.409Z,72
2017-01-18T14:16:27.344Z,68
2017-01-18T14:17:27.281Z,68
2017-01-18T14:18:27.219Z,68
2017-01-18T14:19:27.505Z,68
2017-01-18T14:20:27.146Z,68
2017-01-18T14:21:27.064Z,68
2017-01-18T14:22:27.027Z,68
2017-01-18T14:23:26.911Z,68
2017-01-18T14:24:26.849Z,68
2017-01-18T14:25:26.790Z,68
2017-01-18T14:26:26.731Z,68
2017-01-18T14:27:26.660Z,68
2017-01-18T14:28:26.602Z,68
2017-01-18T14:29:26.921Z,68
2017-01-18T14:30:26.471Z,68
2017-01-18T14:31:26.407Z,68
2017-01-18T14:32:26.345Z,68
2017-01-18T14:33:26.316Z,68
2017-01-18T14:34:26.223Z,68
2017-01-18T14:35:26.162Z,68
2017-01-18T14:36:26.711Z,68
2017-01-18T14:37:26.037Z,68